createdAt,value
2019-06-20T00:00:09.531Z,99025.23
2019-06-20T00:05:15.852Z,99014.27
2019-06-20T00:10:20.323Z,99026.08
2019-06-20T00:15:24.864Z,99022.02
2019-06-20T00:20:29.435Z,99013.48
2019-06-20T00:25:33.877Z,99027.68
2019-06-20T00:30:38.365Z,99031.14
2019-06-20T00:35:42.833Z,99034.21
2019-06-20T00:40:47.494Z,99029.17
2019-06-20T00:45:52.935Z,99012.75
2019-06-20T00:50:57.401Z,99017.86
2019-06-20T00:56:01.927Z,99023.73
2019-06-20T01:01:06.763Z,99022.38
2019-06-20T01:06:11.397Z,99022.92
2019-06-20T01:11:15.870Z,99016.43
2019-06-20T01:16:20.328Z,99001.28
2019-06-20T01:21:24.786Z,99010.97
2019-06-20T01:26:29.286Z,99005.09
2019-06-20T01:31:33.758Z,98993.67
2019-06-20T01:36:38.253Z,98993.53
2019-06-20T01:41:42.722Z,99002.43
2019-06-20T01:46:47.194Z,98996.51
2019-06-20T01:51:51.943Z,99010.20
2019-06-20T01:56:56.582Z,98992.14
2019-06-20T02:02:01.139Z,98999.70
2019-06-20T02:07:05.609Z,98981.89
2019-06-20T02:12:10.191Z,98992.77
2019-06-20T02:17:14.663Z,98999.50
2019-06-20T02:22:19.128Z,98993.66
2019-06-20T02:27:23.665Z,98991.30
2019-06-20T02:32:28.131Z,98998.38
2019-06-20T02:37:32.599Z,98987.37
2019-06-20T02:42:37.146Z,98987.78
2019-06-20T02:47:41.606Z,98995.59
2019-06-20T02:52:47.193Z,99000.55
2019-06-20T02:57:51.663Z,99000.39
2019-06-20T03:02:56.118Z,99005.86
2019-06-20T03:08:00.651Z,99010.58
2019-06-20T03:13:05.194Z,99008.03
2019-06-20T03:18:10.826Z,99006.09
2019-06-20T03:23:15.297Z,99005.03
2019-06-20T03:28:19.845Z,99015.91
2019-06-20T03:33:24.391Z,99028.17
2019-06-20T03:38:28.850Z,99043.03
2019-06-20T03:43:33.354Z,99056.20
2019-06-20T03:48:37.820Z,99060.74
2019-06-20T03:53:42.291Z,99041.77
2019-06-20T03:58:46.810Z,99022.66
2019-06-20T04:03:51.268Z,99030.56
2019-06-20T04:08:55.762Z,99029.80
2019-06-20T04:14:00.234Z,99028.25
2019-06-20T04:19:04.712Z,99026.61
2019-06-20T04:24:09.181Z,99050.63
2019-06-20T04:29:13.645Z,99044.89
2019-06-20T04:34:18.123Z,99039.75
2019-06-20T04:39:23.594Z,99074.09
2019-06-20T04:44:28.056Z,99080.14
2019-06-20T04:49:32.524Z,99100.27
2019-06-20T04:54:36.991Z,99106.75
2019-06-20T04:59:41.460Z,99132.87
2019-06-20T05:04:45.941Z,99135.58
2019-06-20T05:09:50.520Z,99148.59
2019-06-20T05:14:54.982Z,99166.94
2019-06-20T05:19:59.484Z,99171.92
2019-06-20T05:25:05.008Z,99179.38
2019-06-20T05:30:11.313Z,99190.23
2019-06-20T05:35:16.425Z,99206.00
2019-06-20T05:40:20.991Z,99211.73
2019-06-20T05:45:25.646Z,99216.09
2019-06-20T05:50:30.955Z,99222.44
2019-06-20T05:55:36.305Z,99206.20
2019-06-20T06:00:40.775Z,99183.14
2019-06-20T06:05:45.442Z,99190.78
2019-06-20T06:10:49.891Z,99220.25
2019-06-20T06:15:54.388Z,99229.38
2019-06-20T06:20:58.861Z,99236.79
2019-06-20T06:26:03.412Z,99239.03
2019-06-20T06:31:07.875Z,99251.36
2019-06-20T06:36:12.387Z,99254.11
2019-06-20T06:41:16.917Z,99252.81
2019-06-20T06:46:21.549Z,99260.08
2019-06-20T06:51:26.019Z,99256.84
2019-06-20T06:56:30.631Z,99254.28
2019-06-20T07:01:35.183Z,99254.13
2019-06-20T07:06:39.641Z,99239.64
2019-06-20T07:11:44.116Z,99233.58
2019-06-20T07:16:59.760Z,99227.83
2019-06-20T07:21:54.741Z,99228.99
2019-06-20T07:26:59.279Z,99225.55
2019-06-20T07:32:03.828Z,99217.91
2019-06-20T07:37:08.300Z,99241.23
2019-06-20T07:42:12.770Z,99248.66
2019-06-20T07:47:18.157Z,99230.55
2019-06-20T07:52:22.841Z,99237.05
2019-06-20T07:57:27.450Z,99267.02
2019-06-20T08:02:31.913Z,99266.02
2019-06-20T08:07:36.451Z,99269.06
2019-06-20T08:12:40.925Z,99287.41
2019-06-20T08:17:45.415Z,99283.16
2019-06-20T08:22:49.877Z,99260.28
2019-06-20T08:27:54.353Z,99250.80
2019-06-20T08:33:01.090Z,99244.52
2019-06-20T08:38:07.405Z,99257.31
2019-06-20T08:43:11.767Z,99254.07
2019-06-20T08:48:16.241Z,99255.27
2019-06-20T08:53:20.709Z,99265.44
2019-06-20T08:58:25.200Z,99267.61
2019-06-20T09:03:30.120Z,99269.33
2019-06-20T09:08:34.643Z,99282.45
2019-06-20T09:13:40.647Z,99275.34
2019-06-20T09:18:45.382Z,99263.02
2019-06-20T09:23:52.428Z,99269.33
2019-06-20T09:28:57.163Z,99270.70
2019-06-20T09:34:05.246Z,99267.92
2019-06-20T09:39:08.179Z,99271.12
2019-06-20T09:44:12.637Z,99273.73
2019-06-20T09:49:17.104Z,99276.59
2019-06-20T09:54:21.623Z,99272.81
2019-06-20T09:59:27.831Z,99281.92
2019-06-20T10:04:32.377Z,99279.92
2019-06-20T10:09:36.892Z,99270.73
2019-06-20T10:14:41.361Z,99276.83
2019-06-20T10:19:47.270Z,99272.53
2019-06-20T10:24:52.001Z,99269.04
2019-06-20T10:30:04.958Z,99263.92
2019-06-20T10:35:02.716Z,99263.50
2019-06-20T10:40:08.134Z,99255.55
2019-06-20T10:45:13.303Z,99263.47
2019-06-20T10:50:19.556Z,99270.63
2019-06-20T10:55:26.791Z,99278.31
2019-06-20T11:00:32.031Z,99278.71
2019-06-20T11:05:36.532Z,99283.41
2019-06-20T11:10:42.237Z,99276.74
2019-06-20T11:15:48.270Z,99281.75
2019-06-20T11:20:53.751Z,99275.78
2019-06-20T11:25:58.249Z,99274.58
2019-06-20T11:31:02.777Z,99259.77
2019-06-20T11:36:07.246Z,99265.22
2019-06-20T11:41:11.712Z,99260.98
2019-06-20T11:46:16.192Z,99254.90
2019-06-20T11:51:20.657Z,99243.88
2019-06-20T11:56:25.163Z,99248.68
2019-06-20T12:01:32.958Z,99254.57
2019-06-20T12:06:35.889Z,99267.48
2019-06-20T12:11:40.727Z,99270.86
2019-06-20T12:16:46.389Z,99263.38
2019-06-20T12:21:50.969Z,99245.64
2019-06-20T12:26:55.427Z,99253.98
2019-06-20T12:31:59.999Z,99267.78
2019-06-20T12:37:04.771Z,99260.66
2019-06-20T12:42:09.240Z,99251.61
2019-06-20T12:47:13.715Z,99273.31
2019-06-20T12:52:18.190Z,99271.97
2019-06-20T12:57:22.653Z,99283.48
2019-06-20T13:02:27.297Z,99282.41
2019-06-20T13:07:31.775Z,99263.16
2019-06-20T13:12:36.240Z,99258.53
2019-06-20T13:17:41.962Z,99270.11
2019-06-20T13:22:46.866Z,99286.91
2019-06-20T13:27:51.449Z,99275.53
2019-06-20T13:32:56.293Z,99272.72
2019-06-20T13:38:00.761Z,99274.91
2019-06-20T13:43:05.395Z,99286.55
2019-06-20T13:48:10.919Z,99280.17
2019-06-20T13:53:15.874Z,99281.48
2019-06-20T13:58:20.617Z,99284.30
2019-06-20T14:03:25.114Z,99252.02
2019-06-20T14:08:29.577Z,99252.86
2019-06-20T14:13:34.050Z,99242.14
2019-06-20T14:18:38.564Z,99236.34
2019-06-20T14:23:44.716Z,99232.17
2019-06-20T14:28:49.218Z,99226.77
2019-06-20T14:33:53.692Z,99229.44
2019-06-20T14:38:59.157Z,99214.03
2019-06-20T14:44:05.034Z,99215.55
2019-06-20T14:49:09.573Z,99215.34
2019-06-20T14:54:14.051Z,99204.46
2019-06-20T14:59:18.534Z,99212.11
2019-06-20T15:04:23.083Z,99212.39
2019-06-20T15:09:27.554Z,99208.48
2019-06-20T15:14:32.020Z,99199.39
2019-06-20T15:19:36.497Z,99199.34
2019-06-20T15:24:44.911Z,99197.59
2019-06-20T15:29:48.985Z,99197.20
2019-06-20T15:34:55.129Z,99187.06
2019-06-20T15:39:59.699Z,99171.39
2019-06-20T15:45:06.201Z,99166.73
2019-06-20T15:50:11.192Z,99167.39
2019-06-20T15:55:18.901Z,99161.45
2019-06-20T16:00:23.528Z,99167.08
2019-06-20T16:05:28.070Z,99152.28
2019-06-20T16:10:32.627Z,99155.02
2019-06-20T16:15:37.108Z,99163.58
2019-06-20T16:20:41.567Z,99166.73
2019-06-20T16:25:46.110Z,99180.28
2019-06-20T16:30:50.589Z,99181.77
2019-06-20T16:35:55.045Z,99184.77
2019-06-20T16:40:59.530Z,99185.31
2019-06-20T16:46:04.168Z,99192.59
2019-06-20T16:51:08.631Z,99191.20
2019-06-20T16:56:13.173Z,99203.31
2019-06-20T17:01:17.646Z,99207.45
2019-06-20T17:06:22.182Z,99205.66
2019-06-20T17:11:26.655Z,99189.97
2019-06-20T17:16:31.146Z,99191.64
2019-06-20T17:21:35.615Z,99192.59
2019-06-20T17:26:40.183Z,99207.00
2019-06-20T17:31:44.653Z,99207.24
2019-06-20T17:36:49.306Z,99219.45
2019-06-20T17:41:55.460Z,99225.45
2019-06-20T17:46:59.980Z,99216.58
2019-06-20T17:52:04.791Z,99220.77
2019-06-20T17:57:09.278Z,99229.67
2019-06-20T18:02:13.747Z,99236.68
2019-06-20T18:07:18.218Z,99247.59
2019-06-20T18:12:22.752Z,99239.61
2019-06-20T18:17:27.390Z,99252.84
2019-06-20T18:22:31.860Z,99255.55
2019-06-20T18:27:36.357Z,99256.98
2019-06-20T18:32:40.825Z,99261.31
2019-06-20T18:37:45.313Z,99271.98
2019-06-20T18:42:49.849Z,99266.73
2019-06-20T18:47:55.292Z,99266.66
2019-06-20T18:52:59.754Z,99284.83
2019-06-20T18:58:04.349Z,99289.23
2019-06-20T19:03:09.651Z,99295.29
2019-06-20T19:08:14.121Z,99302.95
2019-06-20T19:13:18.591Z,99313.58
2019-06-20T19:18:23.352Z,99310.94
2019-06-20T19:23:27.935Z,99326.03
2019-06-20T19:28:32.440Z,99333.31
2019-06-20T19:33:36.895Z,99336.23
2019-06-20T19:38:41.365Z,99336.64
2019-06-20T19:43:45.834Z,99336.95
2019-06-20T19:48:52.971Z,99338.58
2019-06-20T19:53:57.442Z,99335.55
2019-06-20T19:59:02.080Z,99353.88
2019-06-20T20:04:06.632Z,99360.30
2019-06-20T20:09:11.154Z,99363.45
2019-06-20T20:14:15.639Z,99367.84
2019-06-20T20:19:20.454Z,99378.05
2019-06-20T20:24:24.960Z,99406.60
2019-06-20T20:29:29.411Z,99444.36
2019-06-20T20:34:33.885Z,99482.74
2019-06-20T20:39:38.358Z,99492.45
2019-06-20T20:44:42.854Z,99479.52
2019-06-20T20:49:47.316Z,99427.81
2019-06-20T20:54:51.795Z,99450.06
2019-06-20T20:59:56.294Z,99449.89
2019-06-20T21:05:00.772Z,99474.02
2019-06-20T21:10:06.958Z,99477.06
2019-06-20T21:15:11.657Z,99495.22
2019-06-20T21:20:16.659Z,99501.19
2019-06-20T21:25:21.256Z,99509.18
2019-06-20T21:30:25.888Z,99515.53
2019-06-20T21:35:30.353Z,99516.38
2019-06-20T21:40:34.824Z,99516.80
2019-06-20T21:45:39.352Z,99508.92
2019-06-20T21:50:44.495Z,99521.19
2019-06-20T21:55:50.099Z,99514.04
2019-06-20T22:00:57.615Z,99514.61
2019-06-20T22:06:02.720Z,99508.27
2019-06-20T22:11:07.180Z,99499.74
2019-06-20T22:16:11.747Z,99492.27
2019-06-20T22:21:16.338Z,99485.16
2019-06-20T22:26:20.808Z,99492.45
2019-06-20T22:31:25.286Z,99510.86
2019-06-20T22:36:39.748Z,99514.66
2019-06-20T22:41:35.926Z,99512.47
2019-06-20T22:46:40.448Z,99502.86
2019-06-20T22:51:44.913Z,99516.47
2019-06-20T22:56:49.462Z,99511.63
2019-06-20T23:01:53.927Z,99523.12
2019-06-20T23:06:58.501Z,99512.19
2019-06-20T23:12:02.979Z,99517.53
2019-06-20T23:17:07.434Z,99524.16
2019-06-20T23:22:11.893Z,99530.44
2019-06-20T23:27:16.457Z,99528.34
2019-06-20T23:32:20.927Z,99548.36
2019-06-20T23:37:25.405Z,99546.81
2019-06-20T23:42:29.909Z,99546.25
2019-06-20T23:47:34.373Z,99542.08
2019-06-20T23:52:40.510Z,99542.76
2019-06-20T23:57:44.976Z,99551.11
